hero-logo

Top 15 Knowers of NSC Norfolk Southern Corp - 2017-07-26

Rank Fund Result (K)
1 Squarepoint Ops Llc $499
2 London Co Of Virginia $378
3 Highbridge Capital Management Llc $273
4 Paloma Partners Management Co $151
5 Magellan Asset Management Ltd $135
6 Northwestern Mutual Investment Management Company Llc $98
7 Gsa Capital Partners Llp $98
8 Glg Llc $96
9 Secor Capital Advisors Lp $86
10 Dana Investment Advisors Inc $84
11 Guggenheim Capital Llc $69
12 Bridgeway Capital Management Inc $68
13 Glen Harbor Capital Management Llc $63
14 Fdo Partners Llc $61
15 Capstone Investment Advisors Llc $55
Price Chart and News From Google Finance for NSC Norfolk Southern Corp
Owner Date Shares Change Price Change Result (K)
Acrospire Investment Management Llc 2017-03-31 0 $3.90 $0
Advantage Investment Management Llc 2017-03-31 125 $3.90 $0
Afam Capital Inc 2017-03-31 -3,854 $3.90 $-15
Ahl Partners Llp 2017-03-31 -5,443 $3.90 $-21
Aldebaran Financial Inc 2017-03-31 -100 $3.90 $0
Allen Investment Management Llc 2017-03-31 -5,124 $3.90 $-19
Allsquare Wealth Management Llc 2017-03-31 100 $3.90 $0
Amalgamated Bank 2017-03-31 1,200 $3.90 $4
American Money Management Llc 2017-03-31 -739 $3.90 $-2
Amf Pensionsforsakring Ab 2017-03-31 -64,903 $3.90 $-253
Anchor Bolt Capital Lp 2017-03-31 -312,145 $3.90 $-1,217
Ancora Advisors Llc 2017-03-31 0 $3.90 $0
Aperio Group Llc 2017-03-31 8,942 $3.90 $34
Archford Capital Strategies Llc 2017-03-31 -109 $3.90 $0
Argi Investment Services Llc 2017-03-31 -195 $3.90 $0
Arrow Financial Corp 2017-03-31 0 $3.90 $0
A R T Advisors Llc 2017-03-31 -33,200 $3.90 $-129
Ashford Capital Management Inc 2017-03-31 0 $3.90 $0
Assenagon Asset Management S A 2017-03-31 -180,900 $3.90 $-705
Assetmark Inc 2017-03-31 -570 $3.90 $-2
Bahl Gaynor Inc 2017-03-31 -940 $3.90 $-3
Beacon Trust Co 2017-03-31 -109 $3.90 $0
Bienville Capital Management Llc 2017-03-31 0 $3.90 $0
Blair William Co Il 2017-03-31 12,265 $3.90 $47
Bokf Na 2017-03-31 -213 $3.90 $0
Boston Private Wealth Llc 2017-03-31 -4,767 $3.90 $-18
Bowen Hanes Co Inc 2017-03-31 820 $3.90 $3
Bridgeway Capital Management Inc 2017-03-31 17,620 $3.90 $68
Brinker Capital Inc 2017-03-31 1,382 $3.90 $5
Brown Brothers Harriman Co 2017-03-31 19 $3.90 $0
B S Pension Fund Trustee Ltd Acting For The British Steel P 2017-03-31 -826 $3.90 $-3
California State Teachers Retirement System 2017-03-31 -26,800 $3.90 $-104
Camden National Bank 2017-03-31 -2,250 $3.90 $-8
Camg Solamere Management Llc 2017-03-31 -119 $3.90 $0
Canandaigua National Bank Trust Co 2017-03-31 -3,775 $3.90 $-14
Capital Guardian Trust Co 2017-03-31 -217,872 $3.90 $-849
Capstone Investment Advisors Llc 2017-03-31 14,200 $3.90 $55
Carlson Capital L P 2017-03-31 -130,875 $3.90 $-510
Catamount Wealth Management 2017-03-31 0 $3.90 $0
Caxton Associates Lp 2017-03-31 -25,000 $3.90 $-97
Cetera Advisor Networks Llc 2017-03-31 524 $3.90 $2
Cetera Advisors Llc 2017-03-31 -2,054 $3.90 $-8
Cincinnati Financial Corp 2017-03-31 0 $3.90 $0
Cincinnati Insurance Co 2017-03-31 0 $3.90 $0
Clear Perspective Advisors Llc 2017-03-31 0 $3.90 $0
Compton Capital Management Inc Ri 2017-03-31 -4,900 $3.90 $-19
Conatus Capital Management Lp 2017-03-31 -712,749 $3.90 $-2,779
Congress Asset Management Co Ma 2017-03-31 559 $3.90 $2
Cornerstone Capital Management Holdings Llc 2017-03-31 -2,518 $3.90 $-9
Cornerstone Wealth Management Llc 2017-03-31 -177 $3.90 $0
Crawford Investment Counsel Inc 2017-03-31 -24,704 $3.90 $-96
Cs Mckee Lp 2017-03-31 -3,800 $3.90 $-14
Csu Producer Resources Inc 2017-03-31 0 $3.90 $0
D A Davidson Co 2017-03-31 -6,576 $3.90 $-25
Dana Investment Advisors Inc 2017-03-31 21,787 $3.90 $84
Delaney Dennis R 2017-03-31 0 $3.90 $0
Denver Investment Advisors Llc 2017-03-31 90 $3.90 $0
Dixon Hubard Feinour Brown Inc Va 2017-03-31 -1,085 $3.90 $-4
Dorazio Associates Inc 2017-03-31 4 $3.90 $0
Eagle Global Advisors Llc 2017-03-31 0 $3.90 $0
Earnest Partners Llc 2017-03-31 -35,201 $3.90 $-137
Encompass Capital Advisors Llc 2017-03-31 -75,000 $3.90 $-292
Envestnet Asset Management Inc 2017-03-31 -15,419 $3.90 $-60
Estabrook Capital Management 2017-03-31 -3,185 $3.90 $-12
Eventide Asset Management Llc 2017-03-31 -2,700 $3.90 $-10
Fairfield Bush Co 2017-03-31 -180 $3.90 $0
Farmers National Bank 2017-03-31 778 $3.90 $3
Fdo Partners Llc 2017-03-31 15,694 $3.90 $61
Fdx Advisors Inc 2017-03-31 1,047 $3.90 $4
First Heartland Consultants Inc 2017-03-31 2 $3.90 $0
First Republic Investment Management Inc 2017-03-31 -7,800 $3.90 $-30
Flagship Harbor Advisors Llc 2017-03-31 1 $3.90 $0
Focused Wealth Management Inc 2017-03-31 0 $3.90 $0
Folger Hill Asset Management Lp 2017-03-31 12,134 $3.90 $47
Glassman Wealth Services 2017-03-31 196 $3.90 $0
Glen Harbor Capital Management Llc 2017-03-31 16,218 $3.90 $63
Glg Llc 2017-03-31 24,724 $3.90 $96
Gotham Asset Management Llc 2017-03-31 -43,666 $3.90 $-170
Group One Trading L P 2017-03-31 669 $3.90 $2
Gsa Capital Partners Llp 2017-03-31 25,172 $3.90 $98
Gsb Wealth Management Llc 2017-03-31 -3,384 $3.90 $-13
Guggenheim Capital Llc 2017-03-31 17,847 $3.90 $69
Hanson Doremus Investment Management 2017-03-31 -85 $3.90 $0
Hendley Co Inc 2017-03-31 0 $3.90 $0
Heritage Way Advisors Llc 2017-03-31 250 $3.90 $0
Highbridge Capital Management Llc 2017-03-31 70,000 $3.90 $273
Horizon Kinetics Llc 2017-03-31 -750 $3.90 $-2
Hutner Capital Management Inc 2017-03-31 -117 $3.90 $0
Ifp Advisors Inc 2017-03-31 -242 $3.90 $0
Iht Wealth Management Llc 2017-03-31 -594 $3.90 $-2
Intellectus Partners Llc 2017-03-31 0 $3.90 $0
Interocean Capital Llc 2017-03-31 -4,447 $3.90 $-17
Israel Discount Bank Of New York 2017-03-31 998 $3.90 $3
Itau Unibanco Holding S A 2017-03-31 330 $3.90 $1
Jaffetilchin Investment Partners Llc 2017-03-31 577 $3.90 $2
Jane Street Group Llc 2017-03-31 -134,137 $3.90 $-523
Johnson Investment Counsel Inc 2017-03-31 -24,719 $3.90 $-96
Kelly Lawrence W Associates Inc Ca 2017-03-31 0 $3.90 $0
Kentucky Retirement Systems 2017-03-31 -2,556 $3.90 $-9
Kentucky Retirement Systems Insurance Trust Fund 2017-03-31 -1,595 $3.90 $-6
Kidder Stephen W 2017-03-31 -100 $3.90 $0
Kimelman Baird Llc 2017-03-31 -50 $3.90 $0
Krilogy Financial Llc 2017-03-31 0 $3.90 $0
Ladenburg Thalmann Financial Services Inc 2017-03-31 -3,739 $3.90 $-14
Lcnb Corp 2017-03-31 -80 $3.90 $0
Lee Financial Corp 2017-03-31 -153 $3.90 $0
Level Four Advisory Services Llc 2017-03-31 131 $3.90 $0
Logan Capital Management Inc 2017-03-31 212 $3.90 $0
London Co Of Virginia 2017-03-31 96,925 $3.90 $378
Loomis Sayles Co L P 2017-03-31 -33,907 $3.90 $-132
Lowe Brockenbrough Co Inc 2017-03-31 778 $3.90 $3
Magellan Asset Management Ltd 2017-03-31 34,666 $3.90 $135
Mariner Wealth Advisors Llc 2017-03-31 0 $3.90 $0
Marketfield Asset Management Llc 2017-03-31 -15,044 $3.90 $-58
Mason Street Advisors Llc 2017-03-31 216 $3.90 $0
Meadow Creek Investment Management Llc 2017-03-31 13,356 $3.90 $52
M Holdings Securities Inc 2017-03-31 3 $3.90 $0
Mik Capital Llc 2017-03-31 -290,265 $3.90 $-1,132
Monroe Bank Trust Mi 2017-03-31 -938 $3.90 $-3
Montecito Bank Trust 2017-03-31 -765 $3.90 $-2
Moore Capital Management Lp 2017-03-31 -55,000 $3.90 $-214
Mv Capital Management Inc 2017-03-31 0 $3.90 $0
National Asset Management Inc 2017-03-31 -7,859 $3.90 $-30
Northern Oak Wealth Management Inc 2017-03-31 3,721 $3.90 $14
Northwestern Mutual Investment Management Company Llc 2017-03-31 25,211 $3.90 $98
Northwestern Mutual Wealth Management Co 2017-03-31 22 $3.90 $0
Pacific Center For Financial Services 2017-03-31 0 $3.90 $0
Paloma Partners Management Co 2017-03-31 38,790 $3.90 $151
Patriot Financial Group Insurance Agency Llc 2017-03-31 0 $3.90 $0
Perigon Wealth Management Llc 2017-03-31 0 $3.90 $0
Picton Mahoney Asset Management 2017-03-31 -3,100 $3.90 $-12
Piedmont Investment Advisors Llc 2017-03-31 535 $3.90 $2
Pinkerton Retirement Specialists Llc 2017-03-31 -840 $3.90 $-3
Pittenger Anderson Inc 2017-03-31 -805 $3.90 $-3
Plancorp Llc 2017-03-31 -4 $3.90 $0
Princeton Portfolio Strategies Group Llc 2017-03-31 -13 $3.90 $0
Proficio Capital Partners Llc 2017-03-31 36 $3.90 $0
Public Employees Retirement System Of Ohio 2017-03-31 0 $3.90 $0
Raymond James Associates 2017-03-31 -10,376 $3.90 $-40
Reynders Mcveigh Capital Management Llc 2017-03-31 -316 $3.90 $-1
Riverhead Capital Management Llc 2017-03-31 5,485 $3.90 $21
River Wealth Advisors Llc 2017-03-31 -550 $3.90 $-2
Rodgers Brothers Inc 2017-03-31 0 $3.90 $0
Roundview Capital Llc 2017-03-31 0 $3.90 $0
Salem Investment Counselors Inc 2017-03-31 -22 $3.90 $0
Saturna Capital Corp 2017-03-31 0 $3.90 $0
Saybrook Capital Nc 2017-03-31 200 $3.90 $0
Schonfeld Strategic Advisors Llc 2017-03-31 2,720 $3.90 $10
Sciencast Management Lp 2017-03-31 11,929 $3.90 $46
Scotia Capital Inc 2017-03-31 -289 $3.90 $-1
Secor Capital Advisors Lp 2017-03-31 22,165 $3.90 $86
Segall Bryant Hamill Llc 2017-03-31 68 $3.90 $0
Sequoia Financial Advisors Llc 2017-03-31 1,785 $3.90 $6
Seven Eight Capital Lp 2017-03-31 -3,900 $3.90 $-15
Signaturefd Llc 2017-03-31 18 $3.90 $0
Silvercrest Asset Management Group Llc 2017-03-31 1,135 $3.90 $4
Somerville Kurt F 2017-03-31 0 $3.90 $0
Southeast Asset Advisors Inc 2017-03-31 1,813 $3.90 $7
Sowell Financial Services Llc 2017-03-31 -49 $3.90 $0
Squarepoint Ops Llc 2017-03-31 128,013 $3.90 $499
Srs Capital Advisors Inc 2017-03-31 -965 $3.90 $-3
Staton Financial Advisors Llc 2017-03-31 -635 $3.90 $-2
Steinberg Global Asset Management 2017-03-31 0 $3.90 $0
Sterling Capital Management Llc 2017-03-31 1,263 $3.90 $4
Stifel Financial Corp 2017-03-31 -245,536 $3.90 $-957
Thomas J Herzfeld Advisors Inc 2017-03-31 -1,000 $3.90 $-3
Tortoise Investment Management Llc 2017-03-31 -67 $3.90 $0
Two Sigma Securities Llc 2017-03-31 3,966 $3.90 $15
Tyers Asset Management Llc 2017-03-31 7,632 $3.90 $29
United Capital Financial Advisers Llc 2017-03-31 2,027 $3.90 $7
Usa Financial Portformulas Corp 2017-03-31 2,397 $3.90 $9
Veritable L P 2017-03-31 59 $3.90 $0
Verition Fund Management Llc 2017-03-31 7,399 $3.90 $28
Vestor Capital Llc 2017-03-31 -11,439 $3.90 $-44
Voloridge Investment Management Llc 2017-03-31 -74,510 $3.90 $-290
Walleye Trading Llc 2017-03-31 7,920 $3.90 $30
Waters Parkerson Co Llc 2017-03-31 -13,350 $3.90 $-52
Wayne Hummer Investments L L C 2017-03-31 4,361 $3.90 $17
Weatherly Asset Management L P 2017-03-31 737 $3.90 $2
Webster Bank N A 2017-03-31 430 $3.90 $1
Wexford Capital Lp 2017-03-31 -116,017 $3.90 $-452
Willis Investment Counsel 2017-03-31 -29,015 $3.90 $-113
Wills Financial Group Inc 2017-03-31 14 $3.90 $0
Yorkbridge Wealth Partners Llc 2017-03-31 162 $3.90 $0